Azalea, Oregon
Current Conditions -  °F | °C
As of 11:06 AM on Friday 24 Oct 2014 (Local Time) from KSXT Reporting Station
Light Rain Light Rain  
Wind Chill: 37°   Ceiling: 100
Heat Index: 44°   Visibility: 0mi
Dew Point: 44°   Wind: 16mph
Humidity: 100%   Direction: 130°SE
Pressure: 29.88"   Gusts: 24mph
Location:  42.8°N, 123.26°W
Report Text: KSXT 241806Z AUTO 13014G21KT M1/4SM -RA FG VV001 07/07 A2988 RMK AO2 P0001 T00670067
Loading
Personal Weather Stations






























Interactive Weather Map
Tropical Storm Tracking
New forecast layout! Learn more

10-Day Weather Forecast

Advertisements
Track Severe Weather on mobile